createdAt,value
2018-08-23T00:00:45.941Z,22.78
2018-08-23T00:03:19.740Z,22.70
2018-08-23T00:05:53.547Z,22.69
2018-08-23T00:08:22.866Z,22.68
2018-08-23T00:10:52.067Z,22.68
2018-08-23T00:13:21.144Z,22.71
2018-08-23T00:15:49.817Z,22.75
2018-08-23T00:18:18.429Z,22.73
2018-08-23T00:20:47.027Z,22.74
2018-08-23T00:23:15.697Z,22.75
2018-08-23T00:25:44.274Z,22.78
2018-08-23T00:28:13.210Z,22.73
2018-08-23T00:30:44.047Z,22.63
2018-08-23T00:33:12.717Z,22.57
2018-08-23T00:35:41.297Z,22.49
2018-08-23T00:38:09.953Z,22.45
2018-08-23T00:40:40.410Z,22.36
2018-08-23T00:43:10.092Z,22.33
2018-08-23T00:45:38.655Z,22.29
2018-08-23T00:48:07.386Z,22.23
2018-08-23T00:50:53.963Z,22.26
2018-08-23T00:53:22.562Z,22.21
2018-08-23T00:56:02.884Z,22.17
2018-08-23T00:58:31.436Z,22.13
2018-08-23T01:01:03.146Z,22.10
2018-08-23T01:03:32.383Z,22.05
2018-08-23T01:06:00.962Z,21.99
2018-08-23T01:08:34.045Z,21.95
2018-08-23T01:11:03.585Z,21.90
2018-08-23T01:13:32.190Z,21.87
2018-08-23T01:16:01.031Z,21.92
2018-08-23T01:18:29.656Z,21.91
2018-08-23T01:20:58.290Z,21.86
2018-08-23T01:23:26.878Z,21.81
2018-08-23T01:25:55.494Z,21.81
2018-08-23T01:28:24.180Z,21.82
2018-08-23T01:30:52.796Z,21.79
2018-08-23T01:33:22.381Z,21.78
2018-08-23T01:35:51.828Z,21.76
2018-08-23T01:38:20.454Z,21.67
2018-08-23T01:40:49.509Z,21.63
2018-08-23T01:43:18.225Z,21.58
2018-08-23T01:45:46.831Z,21.52
2018-08-23T01:48:15.407Z,21.48
2018-08-23T01:50:44.005Z,21.45
2018-08-23T01:53:12.627Z,21.45
2018-08-23T01:55:41.205Z,21.44
2018-08-23T01:58:09.805Z,21.38
2018-08-23T02:00:38.382Z,21.33
2018-08-23T02:03:06.988Z,21.31
2018-08-23T02:05:37.866Z,21.27
2018-08-23T02:08:06.518Z,21.21
2018-08-23T02:10:35.141Z,21.17
2018-08-23T02:13:03.799Z,21.09
2018-08-23T02:15:40.686Z,21.07
2018-08-23T02:18:09.288Z,21.02
2018-08-23T02:20:37.883Z,21.02
2018-08-23T02:23:07.807Z,21.03
2018-08-23T02:25:36.376Z,21.04
2018-08-23T02:30:49.436Z,21.01
2018-08-23T02:33:18.203Z,20.97
2018-08-23T02:36:04.758Z,20.95
2018-08-23T02:38:34.021Z,20.91
2018-08-23T02:41:02.594Z,20.89
2018-08-23T02:43:31.191Z,20.85
2018-08-23T02:46:02.435Z,20.77
2018-08-23T02:48:31.029Z,20.70
2018-08-23T02:50:59.637Z,20.67
2018-08-23T02:53:35.463Z,20.61
2018-08-23T02:56:14.611Z,20.54
2018-08-23T02:58:57.133Z,20.47
2018-08-23T03:01:27.174Z,20.46
2018-08-23T03:04:08.326Z,20.42
2018-08-23T03:06:44.209Z,20.44
2018-08-23T03:09:12.863Z,20.46
2018-08-23T03:11:41.420Z,20.44
2018-08-23T03:14:10.055Z,20.39
2018-08-23T03:16:51.114Z,20.37
2018-08-23T03:19:19.762Z,20.43
2018-08-23T03:21:53.606Z,20.52
2018-08-23T03:24:22.227Z,20.53
2018-08-23T03:26:51.037Z,20.50
2018-08-23T03:29:19.903Z,20.51
2018-08-23T03:31:48.453Z,20.57
2018-08-23T03:34:17.168Z,20.67
2018-08-23T03:36:45.779Z,20.66
2018-08-23T03:39:14.382Z,20.58
2018-08-23T03:41:42.974Z,20.57
2018-08-23T03:44:24.666Z,20.61
2018-08-23T03:46:54.218Z,20.69
2018-08-23T03:49:33.094Z,20.77
2018-08-23T03:52:01.717Z,20.71
2018-08-23T03:54:31.201Z,20.73
2018-08-23T03:57:16.226Z,20.72
2018-08-23T03:59:47.842Z,20.73
2018-08-23T04:02:17.551Z,20.83
2018-08-23T04:04:56.742Z,20.84
2018-08-23T04:07:25.305Z,20.96
2018-08-23T04:09:53.862Z,20.99
2018-08-23T04:12:22.541Z,20.98
2018-08-23T04:14:51.152Z,21.04
2018-08-23T04:17:19.737Z,21.00
2018-08-23T04:19:49.533Z,21.10
2018-08-23T04:22:18.425Z,21.15
2018-08-23T04:24:55.032Z,21.25
2018-08-23T04:27:23.657Z,21.36
2018-08-23T04:29:52.248Z,21.37
2018-08-23T04:32:29.217Z,21.42
2018-08-23T04:35:00.542Z,21.47
2018-08-23T04:37:30.071Z,21.50
2018-08-23T04:40:03.867Z,21.57
2018-08-23T04:42:32.638Z,21.59
2018-08-23T04:45:26.610Z,21.68
2018-08-23T04:48:00.721Z,21.74
2018-08-23T04:50:29.307Z,21.81
2018-08-23T04:52:57.916Z,21.92
2018-08-23T04:55:27.115Z,21.94
2018-08-23T04:57:56.708Z,21.98
2018-08-23T05:00:25.834Z,22.03
2018-08-23T05:02:54.420Z,22.16
2018-08-23T05:05:23.071Z,22.19
2018-08-23T05:07:51.662Z,22.31
2018-08-23T05:10:20.331Z,22.34
2018-08-23T05:12:50.544Z,22.52
2018-08-23T05:15:19.184Z,22.54
2018-08-23T05:17:47.863Z,22.62
2018-08-23T05:20:16.558Z,22.77
2018-08-23T05:22:52.910Z,22.81
2018-08-23T05:25:23.377Z,22.92
2018-08-23T05:28:07.270Z,22.91
2018-08-23T05:30:35.897Z,22.93
2018-08-23T05:33:09.530Z,22.98
2018-08-23T05:35:38.092Z,23.03
2018-08-23T05:38:07.989Z,23.15
2018-08-23T05:40:42.268Z,23.14
2018-08-23T05:43:11.317Z,23.23
2018-08-23T05:45:45.158Z,23.33
2018-08-23T05:48:21.687Z,23.43
2018-08-23T05:50:50.368Z,23.53
2018-08-23T05:53:19.776Z,23.58
2018-08-23T05:55:53.481Z,23.79
2018-08-23T05:58:25.207Z,23.99
2018-08-23T06:00:53.936Z,24.07
2018-08-23T06:03:22.496Z,24.18
2018-08-23T06:05:51.594Z,24.20
2018-08-23T06:08:20.315Z,24.55
2018-08-23T06:10:50.800Z,24.83
2018-08-23T06:13:19.927Z,24.99
2018-08-23T06:15:54.772Z,25.14
2018-08-23T06:18:23.993Z,25.17
2018-08-23T06:20:52.633Z,25.40
2018-08-23T06:23:21.668Z,25.52
2018-08-23T06:25:50.627Z,25.53
2018-08-23T06:28:26.337Z,25.43
2018-08-23T06:30:58.936Z,25.35
2018-08-23T06:33:38.650Z,25.39
2018-08-23T06:36:08.330Z,25.49
2018-08-23T06:38:37.936Z,25.43
2018-08-23T06:41:07.701Z,25.41
2018-08-23T06:43:36.407Z,25.42
2018-08-23T06:46:05.555Z,25.35
2018-08-23T06:48:34.257Z,25.38
2018-08-23T06:51:03.907Z,25.43
2018-08-23T06:53:46.655Z,25.40
2018-08-23T06:56:16.561Z,25.39
2018-08-23T06:58:45.275Z,25.48
2018-08-23T07:01:30.126Z,25.57
2018-08-23T07:04:03.801Z,25.69
2018-08-23T07:06:32.894Z,25.67
2018-08-23T07:09:01.932Z,25.76
2018-08-23T07:11:30.675Z,25.92
2018-08-23T07:14:31.011Z,26.04
2018-08-23T07:17:09.531Z,26.14
2018-08-23T07:19:38.107Z,26.20
2018-08-23T07:22:06.926Z,26.20
2018-08-23T07:24:44.766Z,26.30
2018-08-23T07:27:14.758Z,26.47
2018-08-23T07:29:54.872Z,26.62
2018-08-23T07:32:24.868Z,26.71
2018-08-23T07:35:06.105Z,26.84
2018-08-23T07:37:36.602Z,27.04
2018-08-23T07:40:11.348Z,27.06
2018-08-23T07:42:41.230Z,27.17
2018-08-23T07:45:10.473Z,27.27
2018-08-23T07:47:40.773Z,27.42
2018-08-23T07:50:09.400Z,27.59
2018-08-23T07:52:38.825Z,27.54
2018-08-23T07:55:07.940Z,27.59
2018-08-23T07:57:37.259Z,27.65
2018-08-23T08:00:25.593Z,27.66
2018-08-23T08:02:54.374Z,27.71
2018-08-23T08:05:25.314Z,27.79
2018-08-23T08:07:53.934Z,27.93
2018-08-23T08:10:22.561Z,27.99
2018-08-23T08:12:52.037Z,28.10
2018-08-23T08:15:20.789Z,28.21
2018-08-23T08:17:49.357Z,28.36
2018-08-23T08:20:18.018Z,28.34
2018-08-23T08:22:46.635Z,28.44
2018-08-23T08:25:17.142Z,28.51
2018-08-23T08:27:45.958Z,28.70
2018-08-23T08:30:15.849Z,28.80
2018-08-23T08:32:44.945Z,28.91
2018-08-23T08:35:16.430Z,28.95
2018-08-23T08:37:46.112Z,29.05
2018-08-23T08:40:18.865Z,29.12
2018-08-23T08:42:48.035Z,29.23
2018-08-23T08:45:16.687Z,29.35
2018-08-23T08:47:46.430Z,29.41
2018-08-23T08:50:15.417Z,29.55
2018-08-23T08:52:44.066Z,29.65
2018-08-23T08:55:14.134Z,29.64
2018-08-23T08:57:44.922Z,29.76
2018-08-23T09:00:13.569Z,29.80
2018-08-23T09:02:42.307Z,29.87
2018-08-23T09:05:11.967Z,29.86
2018-08-23T09:07:42.627Z,29.93
2018-08-23T09:10:11.244Z,30.08
2018-08-23T09:12:44.945Z,30.30
2018-08-23T09:15:13.539Z,30.74
2018-08-23T09:17:44.340Z,30.97
2018-08-23T09:20:15.283Z,30.98
2018-08-23T09:22:49.046Z,30.92
2018-08-23T09:25:26.591Z,30.95
2018-08-23T09:27:55.229Z,30.76
2018-08-23T09:30:26.030Z,30.88
2018-08-23T09:32:55.005Z,31.07
2018-08-23T09:35:30.981Z,31.16
2018-08-23T09:38:03.448Z,31.21
2018-08-23T09:40:32.044Z,31.32
2018-08-23T09:43:03.198Z,31.40
2018-08-23T09:45:33.192Z,31.45
2018-08-23T09:48:01.849Z,31.60
2018-08-23T09:50:30.481Z,31.71
2018-08-23T09:52:59.161Z,31.73
2018-08-23T09:55:29.718Z,31.77
2018-08-23T09:57:58.838Z,31.83
2018-08-23T10:00:32.540Z,32.00
2018-08-23T10:03:06.235Z,31.96
2018-08-23T10:05:44.294Z,32.02
2018-08-23T10:08:18.010Z,32.19
2018-08-23T10:12:54.485Z,32.28
2018-08-23T10:15:28.416Z,32.29
2018-08-23T10:18:02.112Z,32.33
2018-08-23T10:20:35.960Z,32.42
2018-08-23T10:23:09.690Z,32.58
2018-08-23T10:25:42.070Z,32.55
2018-08-23T10:28:11.986Z,32.65
2018-08-23T10:30:40.804Z,32.78
2018-08-23T10:33:09.438Z,32.82
2018-08-23T10:35:38.655Z,32.97
2018-08-23T10:38:08.012Z,33.17
2018-08-23T10:40:36.663Z,33.12
2018-08-23T10:43:05.335Z,33.26
2018-08-23T10:45:33.948Z,33.26
2018-08-23T10:48:07.590Z,33.37
2018-08-23T10:50:41.573Z,33.33
2018-08-23T10:53:10.272Z,33.54
2018-08-23T10:55:38.910Z,33.61
2018-08-23T10:58:07.614Z,33.73
2018-08-23T11:00:36.284Z,33.85
2018-08-23T11:03:04.956Z,33.94
2018-08-23T11:05:33.603Z,33.80
2018-08-23T11:08:07.284Z,33.77
2018-08-23T11:10:41.030Z,33.70
2018-08-23T11:13:14.934Z,33.78
2018-08-23T11:15:43.597Z,33.95
2018-08-23T11:18:17.280Z,33.93
2018-08-23T11:20:47.994Z,34.23
2018-08-23T11:23:18.699Z,34.44
2018-08-23T11:25:47.352Z,34.65
2018-08-23T11:28:21.525Z,34.79
2018-08-23T11:30:50.724Z,35.02
2018-08-23T11:33:19.343Z,35.14
2018-08-23T11:35:47.967Z,35.04
2018-08-23T11:38:16.609Z,35.05
2018-08-23T11:40:45.215Z,35.01
2018-08-23T11:43:13.839Z,35.22
2018-08-23T11:45:42.442Z,35.37
2018-08-23T11:48:11.072Z,35.29
2018-08-23T11:50:39.776Z,35.54
2018-08-23T11:53:09.120Z,35.46
2018-08-23T11:55:37.885Z,35.48
2018-08-23T11:58:06.588Z,35.60
2018-08-23T12:00:35.986Z,35.68
2018-08-23T12:03:04.818Z,35.70
2018-08-23T12:05:33.594Z,36.01
2018-08-23T12:08:02.279Z,36.14
2018-08-23T12:10:32.011Z,36.20
2018-08-23T12:13:01.644Z,36.12
2018-08-23T12:15:31.880Z,35.97
2018-08-23T12:18:01.479Z,36.14
2018-08-23T12:20:30.297Z,36.46
2018-08-23T12:22:59.173Z,36.62
2018-08-23T12:25:27.909Z,36.80
2018-08-23T12:28:00.347Z,37.09
2018-08-23T12:30:30.274Z,37.23
2018-08-23T12:32:59.012Z,37.32
2018-08-23T12:35:27.874Z,37.42
2018-08-23T12:38:02.492Z,37.76
2018-08-23T12:40:37.152Z,38.02
2018-08-23T12:43:09.177Z,37.76
2018-08-23T12:45:41.085Z,37.99
2018-08-23T12:48:11.242Z,37.99
2018-08-23T12:50:40.468Z,38.19
2018-08-23T12:53:09.230Z,38.47
2018-08-23T12:55:38.030Z,38.69
2018-08-23T12:58:10.500Z,38.75
2018-08-23T13:00:40.266Z,38.87
2018-08-23T13:03:09.449Z,39.13
2018-08-23T13:05:38.561Z,39.12
2018-08-23T13:08:07.607Z,39.52
2018-08-23T13:10:36.864Z,39.63
2018-08-23T13:13:05.700Z,39.65
2018-08-23T13:15:34.461Z,39.40
2018-08-23T13:18:03.624Z,38.84
2018-08-23T13:20:32.516Z,38.83
2018-08-23T13:23:01.239Z,39.26
2018-08-23T13:25:29.971Z,39.65
2018-08-23T13:27:58.774Z,39.02
2018-08-23T13:30:27.513Z,38.50
2018-08-23T13:32:56.269Z,38.31
2018-08-23T13:35:25.756Z,38.85
2018-08-23T13:37:54.513Z,39.40
2018-08-23T13:40:23.229Z,39.55
2018-08-23T13:42:51.914Z,39.71
2018-08-23T13:45:20.624Z,40.13
2018-08-23T13:47:49.269Z,40.21
2018-08-23T13:50:17.905Z,40.15
2018-08-23T13:52:46.611Z,40.34
2018-08-23T13:55:15.391Z,40.31
2018-08-23T13:57:44.211Z,40.25
2018-08-23T14:00:18.334Z,40.60
2018-08-23T14:02:47.295Z,40.59
2018-08-23T14:05:16.312Z,39.67
2018-08-23T14:07:45.375Z,39.87
2018-08-23T14:10:14.604Z,40.44
2018-08-23T14:12:43.532Z,41.42
2018-08-23T14:15:17.620Z,42.04
2018-08-23T14:17:46.307Z,42.55
2018-08-23T14:20:14.983Z,43.43
2018-08-23T14:22:43.718Z,43.73
2018-08-23T14:25:14.982Z,43.52
2018-08-23T14:27:44.670Z,44.12
2018-08-23T14:30:13.362Z,44.74
2018-08-23T14:32:42.171Z,45.24
2018-08-23T14:37:47.509Z,45.55
2018-08-23T14:40:16.438Z,44.44
2018-08-23T14:42:45.166Z,45.00
2018-08-23T14:45:18.075Z,45.68
2018-08-23T14:48:18.831Z,46.22
2018-08-23T14:50:52.810Z,45.64
2018-08-23T14:53:26.840Z,46.15
2018-08-23T14:56:01.175Z,46.19
2018-08-23T14:58:30.439Z,46.03
2018-08-23T15:00:59.771Z,46.50
2018-08-23T15:03:29.864Z,46.42
2018-08-23T15:05:58.630Z,45.97
2018-08-23T15:08:27.389Z,46.02
2018-08-23T15:10:56.173Z,46.47
2018-08-23T15:13:24.856Z,46.80
2018-08-23T15:15:54.099Z,46.82
2018-08-23T15:18:23.375Z,46.73
2018-08-23T15:20:53.298Z,47.06
2018-08-23T15:23:22.054Z,46.88
2018-08-23T15:25:50.790Z,47.31
2018-08-23T15:28:19.399Z,47.43
2018-08-23T15:30:48.044Z,46.91
2018-08-23T15:33:16.666Z,46.79
2018-08-23T15:35:45.277Z,46.74
2018-08-23T15:38:13.889Z,47.25
2018-08-23T15:40:42.445Z,47.77
2018-08-23T15:43:11.096Z,46.46
2018-08-23T15:45:39.718Z,46.78
2018-08-23T15:48:08.403Z,46.97
2018-08-23T15:50:37.078Z,46.89
2018-08-23T15:53:05.955Z,46.99
2018-08-23T15:55:34.895Z,47.45
2018-08-23T15:58:03.393Z,47.16
2018-08-23T16:00:41.028Z,46.77
2018-08-23T16:03:09.882Z,46.66
2018-08-23T16:05:39.559Z,45.88
2018-08-23T16:08:08.236Z,45.94
2018-08-23T16:10:36.889Z,45.74
2018-08-23T16:13:05.711Z,46.06
2018-08-23T16:15:34.348Z,45.98
2018-08-23T16:18:08.421Z,45.73
2018-08-23T16:20:42.254Z,45.76
2018-08-23T16:23:10.903Z,45.09
2018-08-23T16:25:43.689Z,44.62
2018-08-23T16:28:12.550Z,44.93
2018-08-23T16:30:42.442Z,44.88
2018-08-23T16:33:11.626Z,44.60
2018-08-23T16:35:40.579Z,44.48
2018-08-23T16:38:12.466Z,43.72
2018-08-23T16:40:41.085Z,43.41
2018-08-23T16:43:09.954Z,43.02
2018-08-23T16:45:38.567Z,42.96
2018-08-23T16:48:07.288Z,42.78
2018-08-23T16:50:36.387Z,42.53
2018-08-23T16:53:05.047Z,42.33
2018-08-23T16:55:33.646Z,41.99
2018-08-23T16:58:02.255Z,41.73
2018-08-23T17:00:30.939Z,41.45
2018-08-23T17:02:59.574Z,41.36
2018-08-23T17:05:28.170Z,40.95
2018-08-23T17:07:56.766Z,40.48
2018-08-23T17:10:25.788Z,39.83
2018-08-23T17:12:54.441Z,39.38
2018-08-23T17:15:23.143Z,38.49
2018-08-23T17:17:55.621Z,37.76
2018-08-23T17:20:24.260Z,36.72
2018-08-23T17:22:52.865Z,35.75
2018-08-23T17:25:21.567Z,35.13
2018-08-23T17:27:50.149Z,34.56
2018-08-23T17:30:19.411Z,34.21
2018-08-23T17:32:48.494Z,33.92
2018-08-23T17:35:17.120Z,33.50
2018-08-23T17:37:45.735Z,33.13
2018-08-23T17:40:14.436Z,32.74
2018-08-23T17:42:43.562Z,32.42
2018-08-23T17:45:13.402Z,32.12
2018-08-23T17:47:41.967Z,31.84
2018-08-23T17:50:10.649Z,31.58
2018-08-23T17:52:39.282Z,31.38
2018-08-23T17:55:07.906Z,31.23
2018-08-23T17:57:36.488Z,31.01
2018-08-23T18:00:05.642Z,30.77
2018-08-23T18:02:34.319Z,30.61
2018-08-23T18:05:03.130Z,30.49
2018-08-23T18:07:31.822Z,30.33
2018-08-23T18:10:00.429Z,30.17
2018-08-23T18:12:29.055Z,30.00
2018-08-23T18:14:57.689Z,29.93
2018-08-23T18:17:26.330Z,29.81
2018-08-23T18:19:54.930Z,29.73
2018-08-23T18:22:23.692Z,29.56
2018-08-23T18:24:52.296Z,29.47
2018-08-23T18:27:20.929Z,29.42
2018-08-23T18:29:49.536Z,29.32
2018-08-23T18:32:18.319Z,29.22
2018-08-23T18:34:46.788Z,29.16
2018-08-23T18:37:15.393Z,29.04
2018-08-23T18:39:44.037Z,28.92
2018-08-23T18:42:12.812Z,28.80
2018-08-23T18:44:41.470Z,28.69
2018-08-23T18:47:10.558Z,28.61
2018-08-23T18:49:39.186Z,28.58
2018-08-23T18:52:07.843Z,28.49
2018-08-23T18:54:36.448Z,28.37
2018-08-23T18:57:05.224Z,28.29
2018-08-23T18:59:33.861Z,28.15
2018-08-23T19:02:02.908Z,28.07
2018-08-23T19:04:31.558Z,28.02
2018-08-23T19:07:00.232Z,27.99
2018-08-23T19:09:28.914Z,27.93
2018-08-23T19:11:58.053Z,27.86
2018-08-23T19:14:26.643Z,27.90
2018-08-23T19:17:00.582Z,27.90
2018-08-23T19:19:29.211Z,27.82
2018-08-23T19:21:57.862Z,27.74
2018-08-23T19:24:31.654Z,27.64
2018-08-23T19:27:00.324Z,27.49
2018-08-23T19:29:29.005Z,27.45
2018-08-23T19:31:57.671Z,27.37
2018-08-23T19:34:26.449Z,27.37
2018-08-23T19:36:55.180Z,27.37
2018-08-23T19:39:23.894Z,27.34
2018-08-23T19:41:52.554Z,27.31
2018-08-23T19:44:21.189Z,27.27
2018-08-23T19:46:54.994Z,27.28
2018-08-23T19:49:58.413Z,27.14
2018-08-23T19:52:27.206Z,27.12
2018-08-23T19:54:55.866Z,27.05
2018-08-23T19:57:24.521Z,26.98
2018-08-23T19:59:53.146Z,26.90
2018-08-23T20:02:21.753Z,26.88
2018-08-23T20:04:50.462Z,26.77
2018-08-23T20:07:20.831Z,26.67
2018-08-23T20:09:49.533Z,26.57
2018-08-23T20:12:18.340Z,26.54
2018-08-23T20:14:48.099Z,26.49
2018-08-23T20:17:17.447Z,26.49
2018-08-23T20:19:46.116Z,26.39
2018-08-23T20:22:14.905Z,26.28
2018-08-23T20:24:45.128Z,26.25
2018-08-23T20:27:14.268Z,26.25
2018-08-23T20:29:42.992Z,26.17
2018-08-23T20:32:12.079Z,26.11
2018-08-23T20:34:40.798Z,26.00
2018-08-23T20:37:09.512Z,25.96
2018-08-23T20:39:38.204Z,25.85
2018-08-23T20:42:07.432Z,25.80
2018-08-23T20:44:36.114Z,25.79
2018-08-23T20:47:04.889Z,25.80
2018-08-23T20:49:33.513Z,25.73
2018-08-23T20:52:02.295Z,25.66
2018-08-23T20:54:30.988Z,25.60
2018-08-23T20:56:59.685Z,25.60
2018-08-23T20:59:28.326Z,25.58
2018-08-23T21:01:57.015Z,25.53
2018-08-23T21:04:26.173Z,25.56
2018-08-23T21:06:54.876Z,25.47
2018-08-23T21:09:23.669Z,25.39
2018-08-23T21:11:52.479Z,25.34
2018-08-23T21:14:21.207Z,25.35
2018-08-23T21:16:51.428Z,25.37
2018-08-23T21:19:20.162Z,25.36
2018-08-23T21:21:48.973Z,25.36
2018-08-23T21:24:17.763Z,25.37
2018-08-23T21:26:46.547Z,25.38
2018-08-23T21:29:15.281Z,25.38
2018-08-23T21:31:43.962Z,25.43
2018-08-23T21:34:12.669Z,25.53
2018-08-23T21:36:41.323Z,25.54
2018-08-23T21:39:10.437Z,25.57
2018-08-23T21:41:39.165Z,25.52
2018-08-23T21:44:07.755Z,25.51
2018-08-23T21:46:36.483Z,25.52
2018-08-23T21:49:05.206Z,25.55
2018-08-23T21:51:33.826Z,25.49
2018-08-23T21:54:02.497Z,25.43
2018-08-23T21:56:31.142Z,25.34
2018-08-23T21:58:59.728Z,25.23
2018-08-23T22:01:28.350Z,25.16
2018-08-23T22:03:56.981Z,25.08
2018-08-23T22:06:25.579Z,25.12
2018-08-23T22:08:54.220Z,25.09
2018-08-23T22:11:22.853Z,25.16
2018-08-23T22:13:51.468Z,25.11
2018-08-23T22:16:20.097Z,25.07
2018-08-23T22:18:48.837Z,25.01
2018-08-23T22:21:17.431Z,24.92
2018-08-23T22:23:46.077Z,24.91
2018-08-23T22:26:14.753Z,24.83
2018-08-23T22:28:43.392Z,24.78
2018-08-23T22:31:12.052Z,24.85
2018-08-23T22:33:40.939Z,24.83
2018-08-23T22:36:09.622Z,24.85
2018-08-23T22:38:38.263Z,24.83
2018-08-23T22:41:06.905Z,24.77
2018-08-23T22:43:35.513Z,24.72
2018-08-23T22:48:43.272Z,24.70
2018-08-23T22:51:11.921Z,24.66
2018-08-23T22:53:40.607Z,24.69
2018-08-23T22:56:09.212Z,24.73
2018-08-23T22:58:37.903Z,24.68
2018-08-23T23:01:06.547Z,24.55
2018-08-23T23:03:40.370Z,24.42
2018-08-23T23:06:09.026Z,24.31
2018-08-23T23:08:37.622Z,24.30
2018-08-23T23:11:06.509Z,24.45
2018-08-23T23:13:35.133Z,24.45
2018-08-23T23:16:03.730Z,24.38
2018-08-23T23:18:32.340Z,24.32
2018-08-23T23:21:00.956Z,24.23
2018-08-23T23:23:29.545Z,24.15
2018-08-23T23:25:58.171Z,24.08
2018-08-23T23:28:26.806Z,23.99
2018-08-23T23:30:55.464Z,23.94
2018-08-23T23:33:24.071Z,23.89
2018-08-23T23:35:52.689Z,23.91
2018-08-23T23:38:21.333Z,23.90
2018-08-23T23:40:49.913Z,23.96
2018-08-23T23:43:18.505Z,23.98
2018-08-23T23:45:48.005Z,23.92
2018-08-23T23:48:16.650Z,23.90
2018-08-23T23:50:45.367Z,23.88
2018-08-23T23:53:14.022Z,23.86
2018-08-23T23:55:42.637Z,23.79
2018-08-23T23:58:11.364Z,23.72
